Time;durP1;ratioP1;P1;durP2;ratioP2;P2;SDS_P1;SDS_P2;PMS_P1;PMS_P2;Temp;Humidity;BMP_temperature;BMP_pressure;BME280_temperature;BME280_humidity;BME280_pressure;Samples;Min_cycle;Max_cycle;Signal;HPM_P1;HPM_P2
2022/04/28 00:00:14;;;;;;;9.45;7.45;;;5.10;99.90;;;;;;5105595;27;20092;-83
2022/04/28 00:02:40;;;;;;;12.45;8.43;;;5.20;99.90;;;;;;5122632;27;20077;-83
2022/04/28 00:05:08;;;;;;;12.77;7.97;;;5.20;99.90;;;;;;5119574;27;20175;-83
2022/04/28 00:07:35;;;;;;;13.32;8.65;;;5.20;99.90;;;;;;5124805;27;20061;-82
2022/04/28 00:10:01;;;;;;;11.07;7.80;;;5.20;99.90;;;;;;5121025;27;20591;-82
2022/04/28 00:12:27;;;;;;;14.15;8.02;;;5.20;99.90;;;;;;5124863;27;20043;-83
2022/04/28 00:14:54;;;;;;;16.02;8.35;;;5.20;99.90;;;;;;5125272;27;20655;-83
2022/04/28 00:17:20;;;;;;;15.18;7.70;;;5.20;99.90;;;;;;5106990;27;20039;-83
2022/04/28 00:19:45;;;;;;;12.32;7.43;;;5.20;99.90;;;;;;5124866;27;20087;-83
2022/04/28 00:22:13;;;;;;;13.52;8.40;;;5.30;99.90;;;;;;5125609;27;20157;-82
2022/04/28 00:24:39;;;;;;;14.18;8.65;;;5.30;99.90;;;;;;5126183;27;20054;-82
2022/04/28 00:27:05;;;;;;;13.05;8.70;;;5.30;99.90;;;;;;5125844;27;20421;-83
2022/04/28 00:29:31;;;;;;;15.75;8.43;;;5.30;99.90;;;;;;5126125;27;20103;-82
2022/04/28 00:31:57;;;;;;;12.73;8.45;;;5.30;99.90;;;;;;5125764;27;20035;-83
2022/04/28 00:34:23;;;;;;;14.50;8.75;;;5.30;99.90;;;;;;5108923;27;20042;-82
2022/04/28 00:36:48;;;;;;;15.07;8.93;;;5.20;99.90;;;;;;5108625;27;20049;-83
2022/04/28 00:39:14;;;;;;;15.35;9.00;;;5.30;99.90;;;;;;5091299;27;20054;-82
2022/04/28 00:41:40;;;;;;;12.38;8.45;;;5.30;99.90;;;;;;5090264;27;20043;-82
2022/04/28 00:44:10;;;;;;;17.75;8.80;;;5.30;99.90;;;;;;5124996;27;20046;-82
2022/04/28 00:46:36;;;;;;;14.68;9.15;;;5.30;99.90;;;;;;5106561;27;20728;-83
2022/04/28 00:51:48;;;;;;;14.50;9.23;;;5.30;99.90;;;;;;5121030;27;20050;-82
2022/04/28 00:54:14;;;;;;;17.30;9.30;;;5.30;99.90;;;;;;5100922;27;20485;-83
2022/04/28 00:56:40;;;;;;;11.18;8.70;;;5.30;99.90;;;;;;5090440;27;20046;-82
2022/04/28 00:59:06;;;;;;;12.70;9.25;;;5.30;99.90;;;;;;5122269;27;20400;-82
2022/04/28 01:01:33;;;;;;;15.35;9.68;;;5.30;99.90;;;;;;5124253;27;20095;-83
2022/04/28 01:04:00;;;;;;;13.27;9.70;;;5.30;99.90;;;;;;5088013;27;20482;-83
2022/04/28 01:06:26;;;;;;;14.93;10.77;;;5.50;99.90;;;;;;5107794;27;20487;-82
2022/04/28 01:08:52;;;;;;;14.73;9.07;;;5.40;99.90;;;;;;5089631;27;20505;-82
2022/04/28 01:11:19;;;;;;;11.65;7.25;;;5.40;99.90;;;;;;5125461;27;20073;-83
2022/04/28 01:13:45;;;;;;;13.20;8.00;;;5.50;99.90;;;;;;5124002;27;20046;-83
2022/04/28 01:16:13;;;;;;;15.18;8.57;;;5.50;99.90;;;;;;5122094;27;20066;-83
2022/04/28 01:18:40;;;;;;;13.32;8.38;;;5.60;99.90;;;;;;5103053;27;20062;-83
2022/04/28 01:21:07;;;;;;;13.30;8.43;;;5.60;99.90;;;;;;5106814;27;20466;-83
2022/04/28 01:23:34;;;;;;;13.55;7.95;;;5.70;99.90;;;;;;5123563;27;20046;-83
2022/04/28 01:26:01;;;;;;;15.15;7.47;;;5.80;99.90;;;;;;5124234;27;20186;-83
2022/04/28 01:28:27;;;;;;;10.40;7.20;;;5.80;99.90;;;;;;5110292;27;20043;-83
2022/04/28 01:30:53;;;;;;;14.98;6.47;;;5.90;99.90;;;;;;5127531;27;20053;-83
2022/04/28 01:33:19;;;;;;;15.10;7.70;;;5.90;99.90;;;;;;5146247;27;20039;-82
2022/04/28 01:35:45;;;;;;;14.68;8.07;;;6.00;99.90;;;;;;5144167;27;20047;-83
2022/04/28 01:38:11;;;;;;;10.40;6.55;;;6.10;99.90;;;;;;5090970;27;20282;-82
2022/04/28 01:40:37;;;;;;;9.95;6.47;;;6.20;99.90;;;;;;5126995;27;20051;-83
2022/04/28 01:43:04;;;;;;;13.15;7.28;;;6.20;99.90;;;;;;5112630;27;20137;-82
2022/04/28 01:45:30;;;;;;;11.48;6.97;;;6.20;99.90;;;;;;5112555;27;20118;-83
2022/04/28 01:47:56;;;;;;;14.30;7.43;;;6.30;99.90;;;;;;5094128;27;20046;-81
2022/04/28 01:50:21;;;;;;;10.52;5.85;;;6.30;99.90;;;;;;5127448;27;20038;-82
2022/04/28 01:55:32;;;;;;;10.82;6.05;;;6.40;99.90;;;;;;5114097;27;20057;-82
2022/04/28 01:58:01;;;;;;;11.00;5.63;;;6.40;99.90;;;;;;5112856;27;20047;-83
2022/04/28 02:00:27;;;;;;;14.50;6.65;;;6.50;99.90;;;;;;5116508;27;20051;-82
2022/04/28 02:02:55;;;;;;;10.82;6.03;;;6.50;99.90;;;;;;5118441;27;20109;-83
2022/04/28 02:05:21;;;;;;;13.80;6.60;;;6.60;99.90;;;;;;5110183;27;20042;-83
2022/04/28 02:07:47;;;;;;;14.82;6.25;;;6.70;99.90;;;;;;5111116;27;20053;-83
2022/04/28 02:10:13;;;;;;;21.75;6.20;;;6.60;99.90;;;;;;5110559;27;20504;-82
2022/04/28 02:12:39;;;;;;;13.60;6.10;;;6.60;99.90;;;;;;5121479;27;20133;-82
2022/04/28 02:15:05;;;;;;;10.52;5.88;;;6.60;99.90;;;;;;5126721;27;20502;-82
2022/04/28 02:17:36;;;;;;;14.05;6.68;;;6.70;99.90;;;;;;5126394;27;20205;-86
2022/04/28 02:20:07;;;;;;;12.85;8.00;;;6.70;99.90;;;;;;5127502;27;20122;-86
2022/04/28 02:22:36;;;;;;;9.75;6.32;;;6.70;99.90;;;;;;5125052;27;20042;-85
2022/04/28 02:25:05;;;;;;;14.73;7.13;;;6.70;99.90;;;;;;5105094;27;20110;-86
2022/04/28 02:27:31;;;;;;;12.07;5.88;;;6.70;99.90;;;;;;5110294;27;20051;-86
2022/04/28 02:29:58;;;;;;;12.07;6.68;;;6.70;99.90;;;;;;5093081;27;20097;-85
2022/04/28 02:32:24;;;;;;;11.75;6.53;;;6.70;99.90;;;;;;5111481;27;20110;-86
2022/04/28 02:34:50;;;;;;;15.10;7.07;;;6.70;99.90;;;;;;5127887;27;20057;-85
2022/04/28 02:37:16;;;;;;;11.80;6.05;;;6.70;99.90;;;;;;5093271;27;20047;-86
2022/04/28 02:39:42;;;;;;;10.10;7.00;;;6.70;99.90;;;;;;5115674;27;20045;-85
2022/04/28 02:42:08;;;;;;;12.70;7.18;;;6.70;99.90;;;;;;5116920;27;20078;-85
2022/04/28 02:44:34;;;;;;;10.00;7.40;;;6.70;99.90;;;;;;5112944;27;20035;-85
2022/04/28 02:47:00;;;;;;;11.07;7.22;;;6.70;99.90;;;;;;5113079;27;20042;-85
2022/04/28 02:49:25;;;;;;;12.90;7.20;;;6.70;99.90;;;;;;5079995;27;20595;-86
2022/04/28 02:52:13;;;;;;;13.82;6.70;;;6.70;99.90;;;;;;5117571;27;20042;-86
2022/04/28 02:54:39;;;;;;;10.38;6.55;;;6.70;99.90;;;;;;5096404;27;20398;-83
2022/04/28 02:57:05;;;;;;;12.98;7.18;;;6.70;99.90;;;;;;5132641;27;20041;-82
2022/04/28 02:59:30;;;;;;;13.00;7.10;;;6.70;99.90;;;;;;5101541;27;20150;-82
2022/04/28 03:01:56;;;;;;;9.73;6.18;;;6.60;99.90;;;;;;5130613;27;20042;-83
2022/04/28 03:04:25;;;;;;;11.18;6.72;;;6.70;99.90;;;;;;5096613;27;20054;-82
2022/04/28 03:12:20;;;;;;;12.32;6.97;;;6.70;99.90;;;;;;5115224;27;20103;-85
2022/04/28 03:14:46;;;;;;;10.38;6.32;;;6.80;99.90;;;;;;5095297;27;20138;-86
2022/04/28 03:17:11;;;;;;;10.90;6.35;;;6.70;99.90;;;;;;5126530;27;20118;-83
2022/04/28 03:19:38;;;;;;;11.50;6.53;;;6.80;99.90;;;;;;5108368;27;20047;-83
2022/04/28 03:22:03;;;;;;;12.65;6.13;;;6.80;99.90;;;;;;5110697;27;20448;-83
2022/04/28 03:24:39;;;;;;;9.45;5.28;;;6.80;99.90;;;;;;5147277;27;20043;-83
2022/04/28 03:27:06;;;;;;;13.20;6.18;;;6.80;99.90;;;;;;5107717;27;20053;-83
2022/04/28 03:29:31;;;;;;;10.85;5.32;;;6.80;99.90;;;;;;5107852;27;20096;-83
2022/04/28 03:31:57;;;;;;;10.30;5.43;;;6.90;99.90;;;;;;5073643;27;20051;-83
2022/04/28 03:34:24;;;;;;;10.85;5.70;;;6.90;99.90;;;;;;5091041;27;20096;-82
2022/04/28 03:36:51;;;;;;;10.13;6.15;;;6.90;99.90;;;;;;5090012;27;20116;-83
2022/04/28 03:39:17;;;;;;;13.07;6.00;;;6.90;99.90;;;;;;5107564;27;20131;-82
2022/04/28 03:41:44;;;;;;;13.27;5.55;;;6.90;99.90;;;;;;5107315;27;20042;-82
2022/04/28 03:44:09;;;;;;;8.68;5.22;;;6.90;99.90;;;;;;5107525;27;20118;-81
2022/04/28 03:46:36;;;;;;;11.85;6.10;;;7.00;99.90;;;;;;5122792;27;20179;-82
2022/04/28 03:49:03;;;;;;;12.73;5.80;;;7.00;99.90;;;;;;5107125;27;20043;-82
2022/04/28 03:51:29;;;;;;;8.45;4.55;;;7.00;99.90;;;;;;5103157;27;20272;-81
2022/04/28 03:54:00;;;;;;;10.32;4.25;;;7.00;99.90;;;;;;5106175;27;20054;-82
2022/04/28 03:56:31;;;;;;;10.68;5.30;;;7.10;99.90;;;;;;5107925;27;20050;-83
2022/04/28 03:59:01;;;;;;;11.13;5.07;;;7.10;99.90;;;;;;5090277;27;20103;-82
2022/04/28 04:01:27;;;;;;;11.68;5.78;;;7.10;99.90;;;;;;5104778;27;20039;-82
2022/04/28 04:03:53;;;;;;;10.00;4.82;;;7.10;99.90;;;;;;5090072;27;20130;-82
2022/04/28 04:06:19;;;;;;;9.85;5.43;;;7.10;99.90;;;;;;5091497;27;20504;-82
2022/04/28 04:08:49;;;;;;;11.15;5.18;;;7.00;99.90;;;;;;5106943;27;20099;-82
2022/04/28 04:11:15;;;;;;;10.75;4.97;;;7.10;99.90;;;;;;5122706;27;20076;-82
2022/04/28 04:13:41;;;;;;;11.90;5.10;;;7.10;99.90;;;;;;5121755;27;20062;-82
2022/04/28 04:16:07;;;;;;;9.13;4.80;;;7.00;99.90;;;;;;5089076;27;20039;-83
2022/04/28 04:18:36;;;;;;;10.30;4.82;;;7.10;99.90;;;;;;5087709;27;20291;-82
2022/04/28 04:21:04;;;;;;;11.18;5.45;;;7.00;99.90;;;;;;5106104;27;20047;-83
2022/04/28 04:23:31;;;;;;;10.80;5.20;;;7.10;99.90;;;;;;5106196;27;20257;-83
2022/04/28 04:25:57;;;;;;;15.00;5.03;;;7.10;99.90;;;;;;5106136;27;20174;-82
2022/04/28 04:28:23;;;;;;;8.90;4.90;;;7.10;99.90;;;;;;5122515;27;20070;-83
2022/04/28 04:33:36;;;;;;;13.45;5.50;;;7.10;99.90;;;;;;5123926;27;20053;-83
2022/04/28 04:36:03;;;;;;;12.82;5.65;;;7.10;99.90;;;;;;5108473;27;20050;-83
2022/04/28 04:38:29;;;;;;;9.93;5.03;;;7.10;99.90;;;;;;5108680;27;20043;-83
2022/04/28 04:40:55;;;;;;;10.13;6.55;;;7.20;99.90;;;;;;5124986;27;20049;-83
2022/04/28 04:43:21;;;;;;;11.57;5.03;;;7.10;99.90;;;;;;5108789;27;20058;-83
2022/04/28 04:45:47;;;;;;;10.60;5.70;;;7.20;99.90;;;;;;5072615;27;20523;-82
2022/04/28 04:48:13;;;;;;;10.30;6.28;;;7.20;99.90;;;;;;5123034;27;20606;-82
2022/04/28 04:50:40;;;;;;;12.13;5.65;;;7.20;99.90;;;;;;5087071;27;20612;-82
2022/04/28 04:53:06;;;;;;;12.02;5.78;;;7.20;99.90;;;;;;5101943;27;20104;-82
2022/04/28 04:55:42;;;;;;;8.85;5.82;;;7.20;99.90;;;;;;5137113;27;20073;-82
2022/04/28 04:58:08;;;;;;;15.63;7.68;;;7.30;99.90;;;;;;5120227;27;20074;-82
2022/04/28 05:00:34;;;;;;;13.07;7.45;;;7.30;99.90;;;;;;5114253;27;20071;-82
2022/04/28 05:03:00;;;;;;;11.60;6.35;;;7.30;99.90;;;;;;5091796;27;20105;-82
2022/04/28 05:05:25;;;;;;;11.25;6.18;;;7.30;99.90;;;;;;5082084;27;20042;-83
2022/04/28 05:07:51;;;;;;;9.90;5.75;;;7.30;99.90;;;;;;5107788;27;20039;-83
2022/04/28 05:10:18;;;;;;;11.55;6.18;;;7.40;99.90;;;;;;5115810;27;20043;-83
2022/04/28 05:12:45;;;;;;;11.52;5.95;;;7.40;99.90;;;;;;5134254;27;20096;-82
2022/04/28 05:15:12;;;;;;;10.13;6.07;;;7.40;99.90;;;;;;5104870;27;20055;-82
2022/04/28 05:17:38;;;;;;;10.65;5.43;;;7.50;99.90;;;;;;5111999;27;20054;-83
2022/04/28 05:20:06;;;;;;;10.25;6.30;;;7.50;99.90;;;;;;5117472;27;20042;-85
2022/04/28 05:22:32;;;;;;;10.63;5.68;;;7.50;99.90;;;;;;5081541;27;20047;-85
2022/04/28 05:24:58;;;;;;;13.38;5.80;;;7.60;99.90;;;;;;5066152;27;20050;-85
2022/04/28 05:27:24;;;;;;;11.38;5.72;;;7.60;99.90;;;;;;5103558;27;20556;-86
2022/04/28 05:29:51;;;;;;;9.02;6.05;;;7.70;99.90;;;;;;5100535;27;20367;-87
2022/04/28 05:32:17;;;;;;;9.30;5.57;;;7.70;99.90;;;;;;5083842;27;20117;-84
2022/04/28 05:34:42;;;;;;;11.85;5.43;;;7.70;99.90;;;;;;5122501;27;20061;-84
2022/04/28 05:37:12;;;;;;;11.43;6.35;;;7.80;99.90;;;;;;5123091;27;20065;-83
2022/04/28 05:39:40;;;;;;;11.45;5.57;;;7.80;99.90;;;;;;5122938;27;20516;-83
2022/04/28 05:42:07;;;;;;;9.15;6.15;;;7.80;99.90;;;;;;5125110;27;20042;-83
2022/04/28 05:47:24;;;;;;;10.98;5.72;;;7.80;99.90;;;;;;5125716;27;20480;-83
2022/04/28 05:49:50;;;;;;;;;;;7.90;99.90;;;;;;5108684;27;20371;-83
2022/04/28 05:52:16;;;;;;;15.98;5.65;;;7.90;99.90;;;;;;5100653;27;19927;-84
2022/04/28 05:54:42;;;;;;;11.32;6.55;;;7.90;99.90;;;;;;5072161;27;20126;-83
2022/04/28 05:57:08;;;;;;;12.38;5.47;;;7.90;99.90;;;;;;5088457;27;20728;-83
2022/04/28 05:59:34;;;;;;;13.10;5.72;;;7.90;99.90;;;;;;5086586;27;20066;-83
2022/04/28 06:02:02;;;;;;;11.25;6.13;;;8.00;99.90;;;;;;5072268;27;20040;-84
2022/04/28 06:04:31;;;;;;;10.13;5.78;;;8.00;99.90;;;;;;5077181;27;20035;-83
2022/04/28 06:06:56;;;;;;;11.63;6.13;;;8.00;99.90;;;;;;5070196;27;20039;-83
2022/04/28 06:09:25;;;;;;;9.63;5.88;;;8.00;99.90;;;;;;5134279;27;20081;-83
2022/04/28 06:11:51;;;;;;;15.88;5.93;;;8.10;99.90;;;;;;5088160;27;20061;-83
2022/04/28 06:14:17;;;;;;;11.13;6.00;;;8.10;99.90;;;;;;5096358;27;20042;-83
2022/04/28 06:16:42;;;;;;;16.55;6.60;;;8.10;99.90;;;;;;5099304;27;20449;-83
2022/04/28 06:19:08;;;;;;;10.82;5.80;;;8.10;99.90;;;;;;5109410;27;20039;-83
2022/04/28 06:21:35;;;;;;;12.65;5.60;;;8.10;99.90;;;;;;5088955;27;20432;-83
2022/04/28 06:24:04;;;;;;;12.80;5.90;;;8.20;99.90;;;;;;5085084;27;20039;-84
2022/04/28 06:26:30;;;;;;;11.52;5.63;;;8.20;99.90;;;;;;5077930;27;20440;-84
2022/04/28 06:28:56;;;;;;;13.80;5.30;;;8.20;99.90;;;;;;5106136;27;20115;-85
2022/04/28 06:31:22;;;;;;;12.00;5.63;;;8.20;99.90;;;;;;5123619;27;20545;-83
2022/04/28 06:33:48;;;;;;;12.05;6.15;;;8.30;99.90;;;;;;5098808;27;20082;-83
2022/04/28 06:36:13;;;;;;;10.98;6.07;;;8.30;99.90;;;;;;5082969;27;20071;-82
2022/04/28 06:38:39;;;;;;;13.48;6.72;;;8.40;99.90;;;;;;5086480;27;20125;-84
2022/04/28 06:41:05;;;;;;;13.77;7.13;;;8.50;99.90;;;;;;5110281;27;20050;-82
2022/04/28 06:43:32;;;;;;;11.73;6.65;;;8.50;99.90;;;;;;5103217;27;20540;-83
2022/04/28 06:46:13;;;;;;;16.77;6.57;;;8.60;99.90;;;;;;5082680;27;20043;-83
2022/04/28 06:48:58;;;;;;;10.23;6.13;;;8.70;99.90;;;;;;5080315;27;20592;-83
2022/04/28 06:51:24;;;;;;;15.15;6.32;;;8.90;99.90;;;;;;5105611;27;20501;-82
2022/04/28 06:53:50;;;;;;;10.90;5.18;;;8.90;99.90;;;;;;5094565;27;20053;-82
2022/04/28 06:56:16;;;;;;;9.77;4.90;;;9.10;99.90;;;;;;5080074;27;20437;-82
2022/04/28 06:58:43;;;;;;;10.50;4.30;;;9.20;99.90;;;;;;5080275;27;20213;-83
2022/04/28 07:01:08;;;;;;;12.57;4.55;;;9.30;99.90;;;;;;5080392;27;20066;-83
2022/04/28 07:03:34;;;;;;;12.73;4.80;;;9.40;99.90;;;;;;5092242;27;20073;-85
2022/04/28 07:06:00;;;;;;;12.38;4.50;;;9.50;99.90;;;;;;5107244;27;20757;-83
2022/04/28 07:08:26;;;;;;;10.70;4.15;;;9.60;99.90;;;;;;5090651;27;20053;-82
2022/04/28 07:10:52;;;;;;;10.38;4.20;;;9.70;99.90;;;;;;5091737;27;20061;-85
2022/04/28 07:13:18;;;;;;;8.73;3.40;;;9.80;99.90;;;;;;5078236;27;20035;-85
2022/04/28 07:15:44;;;;;;;10.88;4.18;;;9.80;99.90;;;;;;5094927;27;20058;-84
2022/04/28 07:18:11;;;;;;;8.18;3.58;;;9.80;99.90;;;;;;5078105;27;20043;-84
2022/04/28 07:20:37;;;;;;;8.88;3.58;;;9.90;99.90;;;;;;5072963;27;20485;-85
2022/04/28 07:23:03;;;;;;;10.13;3.20;;;10.00;99.90;;;;;;5094896;27;20089;-81
2022/04/28 07:25:31;;;;;;;9.07;2.92;;;10.10;99.90;;;;;;5080154;27;20473;-83
2022/04/28 07:27:57;;;;;;;10.32;3.60;;;10.10;99.90;;;;;;5127804;27;20051;-81
2022/04/28 07:30:24;;;;;;;10.52;3.03;;;10.00;99.90;;;;;;5110484;27;20046;-82
2022/04/28 07:32:51;;;;;;;11.18;3.33;;;10.00;99.90;;;;;;5102676;27;20057;-83
2022/04/28 07:35:19;;;;;;;13.02;3.05;;;9.90;99.90;;;;;;5139986;27;20048;-84
2022/04/28 07:37:48;;;;;;;8.35;3.05;;;9.80;99.90;;;;;;5099588;27;20205;-83
2022/04/28 07:40:13;;;;;;;6.97;2.42;;;9.80;99.90;;;;;;5063062;27;20047;-83
2022/04/28 07:42:40;;;;;;;8.73;2.60;;;9.80;99.90;;;;;;5085471;27;20050;-83
2022/04/28 07:45:06;;;;;;;6.60;2.72;;;9.80;99.90;;;;;;5117455;27;20070;-83
2022/04/28 07:47:35;;;;;;;6.90;2.60;;;9.80;99.90;;;;;;5081987;27;20039;-82
2022/04/28 07:50:01;;;;;;;6.78;2.40;;;9.80;99.90;;;;;;5065778;27;20407;-83
2022/04/28 07:52:27;;;;;;;6.05;3.05;;;9.80;99.90;;;;;;5099068;27;20042;-84
2022/04/28 07:54:53;;;;;;;7.72;2.92;;;9.80;99.90;;;;;;5113175;27;20057;-83
2022/04/28 07:57:22;;;;;;;5.70;2.47;;;9.90;99.90;;;;;;5073041;27;20138;-83
2022/04/28 07:59:49;;;;;;;8.77;3.08;;;9.90;99.90;;;;;;5106018;27;20046;-83
2022/04/28 08:02:15;;;;;;;8.40;3.75;;;10.00;99.90;;;;;;5125793;27;20197;-87
2022/04/28 08:04:41;;;;;;;5.93;3.13;;;10.00;99.90;;;;;;5088090;27;20034;-84
2022/04/28 08:07:07;;;;;;;10.38;3.42;;;10.10;99.90;;;;;;5123624;27;20234;-82
2022/04/28 08:09:33;;;;;;;6.68;3.00;;;10.10;99.90;;;;;;5102896;27;20035;-82
2022/04/28 08:11:59;;;;;;;7.28;2.65;;;10.20;99.90;;;;;;5093178;27;20046;-83
2022/04/28 08:14:25;;;;;;;6.78;2.85;;;10.20;99.90;;;;;;5136370;27;20116;-82
2022/04/28 08:16:52;;;;;;;8.25;3.10;;;10.30;99.90;;;;;;5101266;27;20596;-82
2022/04/28 08:19:19;;;;;;;9.07;3.05;;;10.30;99.90;;;;;;5116266;27;20497;-79
2022/04/28 08:21:48;;;;;;;5.88;2.53;;;10.30;99.90;;;;;;5116392;27;20054;-82
2022/04/28 08:24:16;;;;;;;8.65;2.70;;;10.30;99.90;;;;;;5101286;27;20050;-79
2022/04/28 08:26:42;;;;;;;6.57;2.20;;;10.40;99.90;;;;;;5115959;27;20059;-82
2022/04/28 08:29:10;;;;;;;6.75;2.55;;;10.40;99.90;;;;;;5103638;27;20106;-82
2022/04/28 08:31:43;;;;;;;7.97;2.97;;;10.50;99.90;;;;;;5100016;27;20055;-84
2022/04/28 08:34:11;;;;;;;5.20;2.17;;;10.60;99.90;;;;;;5115252;27;20050;-85
2022/04/28 08:36:37;;;;;;;7.10;2.40;;;10.60;99.90;;;;;;5096044;27;20054;-81
2022/04/28 08:39:04;;;;;;;6.43;2.50;;;10.80;99.90;;;;;;5110197;27;20433;-81
2022/04/28 08:41:42;;;;;;;10.40;2.97;;;10.90;99.90;;;;;;5122407;27;20477;-81
2022/04/28 08:44:24;;;;;;;9.73;3.72;;;10.90;99.90;;;;;;5127230;27;20408;-82
2022/04/28 08:46:53;;;;;;;6.88;2.72;;;10.90;99.90;;;;;;5097589;27;20050;-82
2022/04/28 08:49:22;;;;;;;7.05;2.70;;;10.90;99.90;;;;;;5107025;27;20050;-83
2022/04/28 08:51:57;;;;;;;7.90;2.70;;;11.00;99.90;;;;;;5111910;27;20485;-85
2022/04/28 08:54:25;;;;;;;5.43;2.45;;;11.00;99.90;;;;;;5104860;27;20082;-83
2022/04/28 08:56:53;;;;;;;6.53;2.45;;;11.20;99.90;;;;;;5091241;27;20082;-84
2022/04/28 08:59:23;;;;;;;7.00;2.80;;;11.20;99.90;;;;;;5096890;27;20095;-84
2022/04/28 09:01:50;;;;;;;8.07;3.15;;;11.30;99.90;;;;;;5120367;27;20649;-84
2022/04/28 09:04:17;;;;;;;9.23;2.88;;;11.20;99.90;;;;;;5113985;27;20035;-84
2022/04/28 09:06:45;;;;;;;7.40;2.30;;;11.10;99.90;;;;;;5101051;27;20091;-85
2022/04/28 09:09:15;;;;;;;7.50;2.75;;;11.10;99.90;;;;;;5112587;27;20070;-80
2022/04/28 09:11:42;;;;;;;7.60;2.77;;;11.20;99.90;;;;;;5097881;27;20046;-81
2022/04/28 09:14:17;;;;;;;8.10;2.25;;;11.50;99.90;;;;;;5121854;27;20054;-81
2022/04/28 09:16:54;;;;;;;8.38;2.40;;;11.80;99.90;;;;;;5117630;27;20428;-79
2022/04/28 09:19:24;;;;;;;9.80;2.75;;;12.10;99.90;;;;;;5105198;27;20058;-81
2022/04/28 09:21:53;;;;;;;8.68;2.33;;;12.30;99.90;;;;;;5122345;27;20050;-81
2022/04/28 09:24:20;;;;;;;9.13;2.40;;;12.40;99.90;;;;;;5104348;27;20073;-83
2022/04/28 09:26:48;;;;;;;6.97;2.25;;;12.60;99.90;;;;;;5144691;27;20109;-84
2022/04/28 09:29:16;;;;;;;8.38;2.20;;;12.80;99.90;;;;;;5119862;27;20055;-83
2022/04/28 09:31:46;;;;;;;8.20;2.20;;;12.80;99.90;;;;;;5096042;27;20671;-85
2022/04/28 09:34:12;;;;;;;;;;;12.90;99.80;;;;;;5103365;27;20515;-87
2022/04/28 09:36:40;;;;;;;5.93;2.60;;;13.00;99.90;;;;;;5103739;27;20026;-88
2022/04/28 09:39:08;;;;;;;7.97;2.45;;;13.00;98.90;;;;;;5099587;27;20126;-86
2022/04/28 09:44:20;;;;;;;6.78;2.30;;;12.70;99.50;;;;;;5117203;27;20126;-83
2022/04/28 09:46:47;;;;;;;6.05;2.17;;;12.60;99.60;;;;;;5084752;27;20054;-83
2022/04/28 09:49:17;;;;;;;8.77;2.70;;;12.60;99.90;;;;;;5114165;27;20374;-82
2022/04/28 09:51:44;;;;;;;8.00;2.80;;;12.60;99.90;;;;;;5118193;27;20413;-80
2022/04/28 09:54:12;;;;;;;7.80;2.72;;;12.60;99.90;;;;;;5080259;27;20043;-82
2022/04/28 09:56:39;;;;;;;9.57;2.60;;;12.60;99.90;;;;;;5114774;27;20043;-85
2022/04/28 09:59:09;;;;;;;5.95;2.20;;;12.50;99.90;;;;;;5087400;27;20039;-84
2022/04/28 10:01:37;;;;;;;6.55;2.80;;;12.50;99.90;;;;;;5132246;27;20397;-83
2022/04/28 10:04:04;;;;;;;8.23;2.55;;;12.50;99.90;;;;;;5105927;27;20501;-85
2022/04/28 10:06:34;;;;;;;7.60;2.35;;;12.50;99.90;;;;;;5103680;27;20061;-81
2022/04/28 10:09:08;;;;;;;8.23;2.45;;;12.50;99.90;;;;;;5071952;27;20137;-83
2022/04/28 10:11:35;;;;;;;10.00;2.97;;;12.50;99.90;;;;;;5125963;27;20058;-84
2022/04/28 10:14:01;;;;;;;10.20;2.88;;;12.50;99.90;;;;;;5125004;27;20050;-83
2022/04/28 10:16:27;;;;;;;8.73;2.70;;;12.40;99.90;;;;;;5106542;27;20416;-83
2022/04/28 10:19:19;;;;;;;9.70;3.08;;;12.40;99.90;;;;;;5087296;27;20564;-86
2022/04/28 10:21:55;;;;;;;9.63;2.40;;;12.40;99.90;;;;;;5106234;27;20094;-83
2022/04/28 10:32:56;;;;;;;9.20;3.03;;;12.70;99.90;;;;;;5116524;27;20061;-84
2022/04/28 10:35:56;;;;;;;7.40;2.63;;;12.80;99.60;;;;;;5099917;27;20039;-82
2022/04/28 10:38:26;;;;;;;9.48;2.80;;;12.80;99.90;;;;;;5090033;27;20055;-81
2022/04/28 10:41:02;;;;;;;9.25;2.97;;;12.80;99.90;;;;;;5099143;27;20050;-84
2022/04/28 10:43:41;;;;;;;9.27;3.72;;;13.00;98.90;;;;;;5100531;27;20562;-81
2022/04/28 10:46:07;;;;;;;9.40;3.83;;;12.80;99.60;;;;;;5119263;27;20078;-84
2022/04/28 10:48:35;;;;;;;12.02;4.30;;;12.90;99.70;;;;;;5099691;27;20543;-88
2022/04/28 10:51:15;;;;;;;9.15;4.00;;;13.00;99.90;;;;;;5117177;27;20134;-82
2022/04/28 10:54:09;;;;;;;11.23;4.80;;;13.00;99.90;;;;;;5099838;27;20047;-82
2022/04/28 10:56:54;;;;;;;13.48;5.22;;;12.90;99.90;;;;;;5121225;27;20050;-84
2022/04/28 10:59:39;;;;;;;8.07;4.05;;;12.90;99.70;;;;;;5107313;27;20057;-82
2022/04/28 11:02:09;;;;;;;7.72;4.15;;;12.80;99.90;;;;;;5108178;27;20448;-81
2022/04/28 11:04:35;;;;;;;10.25;4.53;;;12.70;99.90;;;;;;5128198;27;20369;-82
2022/04/28 11:07:06;;;;;;;9.15;4.40;;;12.70;99.90;;;;;;5093174;27;20046;-81
2022/04/28 11:09:38;;;;;;;10.38;3.90;;;12.70;99.90;;;;;;5123175;27;20066;-82
2022/04/28 11:12:08;;;;;;;11.52;4.45;;;12.70;99.90;;;;;;5124620;27;20073;-83
2022/04/28 11:14:46;;;;;;;10.95;4.30;;;12.80;99.90;;;;;;5089455;27;20354;-80
2022/04/28 11:17:13;;;;;;;10.40;4.70;;;13.00;99.90;;;;;;5125304;27;20484;-81
2022/04/28 11:19:40;;;;;;;10.40;4.55;;;13.00;99.90;;;;;;5126236;27;20496;-79
2022/04/28 11:22:06;;;;;;;13.75;4.43;;;12.90;99.90;;;;;;5106124;27;20047;-80
2022/04/28 11:24:39;;;;;;;8.57;4.70;;;12.80;99.90;;;;;;5109464;27;20504;-82
2022/04/28 11:27:05;;;;;;;9.15;4.85;;;12.80;99.90;;;;;;5087345;27;20058;-83
2022/04/28 11:29:31;;;;;;;11.27;5.20;;;13.00;99.90;;;;;;5106091;27;20063;-81
2022/04/28 11:32:00;;;;;;;10.90;4.90;;;13.00;99.60;;;;;;5102976;27;20070;-82
2022/04/28 11:34:29;;;;;;;8.70;4.00;;;13.20;99.90;;;;;;5101814;27;20362;-80
2022/04/28 11:36:55;;;;;;;10.07;4.38;;;13.40;99.00;;;;;;5103593;27;20050;-83
2022/04/28 11:39:24;;;;;;;10.65;4.63;;;13.30;98.30;;;;;;5097454;27;20596;-82
2022/04/28 11:41:52;;;;;;;14.53;4.97;;;13.20;99.10;;;;;;5111312;27;20048;-77
2022/04/28 11:44:19;;;;;;;12.10;4.80;;;13.30;99.50;;;;;;5086075;27;20300;-80
2022/04/28 11:46:45;;;;;;;7.93;4.00;;;13.40;99.30;;;;;;5099023;27;20274;-80
2022/04/28 11:49:11;;;;;;;10.20;4.93;;;13.30;99.00;;;;;;5089025;27;20096;-78
2022/04/28 11:51:37;;;;;;;7.50;3.90;;;13.40;99.40;;;;;;5106994;27;20043;-78
2022/04/28 11:54:04;;;;;;;11.20;4.32;;;13.40;99.00;;;;;;5080130;27;20039;-81
2022/04/28 11:56:33;;;;;;;11.07;4.20;;;13.40;98.20;;;;;;5081019;27;20058;-81
2022/04/28 11:59:03;;;;;;;12.32;4.30;;;13.50;98.60;;;;;;5061324;27;20047;-80
2022/04/28 12:01:32;;;;;;;9.10;4.53;;;13.40;98.50;;;;;;5100513;28;20366;-80
2022/04/28 12:04:01;;;;;;;10.98;4.32;;;13.40;99.00;;;;;;5090450;27;20035;-78
2022/04/28 12:06:28;;;;;;;10.75;3.65;;;13.50;98.30;;;;;;5107836;27;20119;-83
2022/04/28 12:08:56;;;;;;;11.95;3.67;;;13.50;98.50;;;;;;5121710;27;20450;-83
2022/04/28 12:14:23;;;;;;;9.25;4.00;;;13.60;98.00;;;;;;5126511;27;20120;-82
2022/04/28 12:19:53;;;;;;;9.23;3.85;;;13.40;99.00;;;;;;5107179;28;20051;-80
2022/04/28 12:22:36;;;;;;;9.73;4.05;;;13.40;99.90;;;;;;5102600;28;20036;-80
2022/04/28 12:25:10;;;;;;;12.10;3.55;;;13.50;98.40;;;;;;5105954;28;20044;-84
2022/04/28 12:27:48;;;;;;;7.93;3.88;;;13.50;97.10;;;;;;5107097;27;20051;-78
2022/04/28 12:30:19;;;;;;;12.15;3.53;;;13.40;97.90;;;;;;5098946;27;20052;-81
2022/04/28 12:32:51;;;;;;;6.97;3.20;;;13.30;99.20;;;;;;5109157;27;20058;-77
2022/04/28 12:35:25;;;;;;;11.45;3.50;;;13.30;99.20;;;;;;5113850;27;20039;-80
2022/04/28 12:38:00;;;;;;;11.38;3.42;;;13.30;99.80;;;;;;5115224;27;20047;-83
2022/04/28 12:40:27;;;;;;;10.77;3.38;;;13.30;99.90;;;;;;5105496;27;20040;-80
2022/04/28 12:42:54;;;;;;;9.00;3.70;;;13.30;99.90;;;;;;5112207;27;20443;-81
2022/04/28 12:45:51;;;;;;;9.93;4.10;;;13.40;99.90;;;;;;5112741;27;20432;-81
2022/04/28 12:48:28;;;;;;;13.13;4.53;;;13.40;98.90;;;;;;5112491;27;20512;-80
2022/04/28 12:51:19;;;;;;;11.02;3.65;;;13.50;98.60;;;;;;5104582;28;20052;-79
2022/04/28 12:53:50;;;;;;;7.75;3.28;;;13.80;98.80;;;;;;5121053;27;20439;-77
2022/04/28 12:56:26;;;;;;;11.60;3.63;;;13.90;98.30;;;;;;5104986;28;20497;-80
2022/04/28 12:58:57;;;;;;;9.85;3.90;;;13.80;96.90;;;;;;5095076;27;20237;-80
2022/04/28 13:01:23;;;;;;;;;;;13.60;97.60;;;;;;5115209;27;20112;-80
2022/04/28 13:04:07;;;;;;;10.27;3.55;;;13.50;98.10;;;;;;5116615;27;19919;-84
2022/04/28 13:06:39;;;;;;;12.43;3.70;;;13.50;98.10;;;;;;5115363;27;20047;-79
2022/04/28 13:09:07;;;;;;;12.52;3.80;;;13.50;97.90;;;;;;5093489;28;20094;-81
2022/04/28 13:11:39;;;;;;;8.15;3.42;;;13.40;98.10;;;;;;5111809;27;20031;-83
2022/04/28 13:14:06;;;;;;;9.00;3.47;;;13.40;98.30;;;;;;5082058;27;20064;-84
2022/04/28 13:16:35;;;;;;;10.25;4.03;;;13.50;99.50;;;;;;5082828;27;20067;-80
2022/04/28 13:19:05;;;;;;;13.57;3.72;;;13.60;98.40;;;;;;5111417;27;20104;-82
2022/04/28 13:21:31;;;;;;;8.93;3.08;;;13.70;98.60;;;;;;5090652;28;20116;-81
2022/04/28 13:23:57;;;;;;;9.73;3.40;;;13.70;98.50;;;;;;5091527;27;20051;-80
2022/04/28 13:26:26;;;;;;;11.55;3.30;;;13.70;98.40;;;;;;5121947;27;20061;-79